Time;durP1;ratioP1;P1;durP2;ratioP2;P2;SDS_P1;SDS_P2;PMS_P1;PMS_P2;Temp;Humidity;BMP_temperature;BMP_pressure;BME280_temperature;BME280_humidity;BME280_pressure;Samples;Min_cycle;Max_cycle;Signal;HPM_P1;HPM_P2
2021/07/24 00:01:23;;;;;;;21.38;11.25;;;;;;;16.63;100.00;101152.84;5210232;28;20029;-80
2021/07/24 00:03:54;;;;;;;19.50;10.88;;;;;;;16.53;100.00;101144.22;5222311;28;20513;-80
2021/07/24 00:06:24;;;;;;;22.55;11.18;;;;;;;16.40;100.00;101144.13;5211040;28;20025;-80
2021/07/24 00:08:54;;;;;;;20.15;11.40;;;;;;;16.36;100.00;101135.53;5219847;28;20024;-81
2021/07/24 00:11:25;;;;;;;28.42;11.40;;;;;;;16.30;100.00;101130.94;5193428;28;20025;-80
2021/07/24 00:13:55;;;;;;;22.58;10.85;;;;;;;16.28;100.00;101127.59;5215628;28;20037;-80
2021/07/24 00:16:26;;;;;;;22.02;11.68;;;;;;;16.23;100.00;101119.22;5197547;28;20029;-80
2021/07/24 00:18:56;;;;;;;27.45;13.05;;;;;;;16.20;100.00;101119.59;5208376;28;20124;-80
2021/07/24 00:21:27;;;;;;;22.77;12.25;;;;;;;16.12;100.00;101126.00;5209642;28;20026;-80
2021/07/24 00:23:57;;;;;;;24.30;12.52;;;;;;;16.06;100.00;101126.78;5215392;28;20025;-80
2021/07/24 00:26:28;;;;;;;21.08;12.95;;;;;;;16.00;100.00;101127.56;5215461;28;20067;-80
2021/07/24 00:29:00;;;;;;;20.52;12.32;;;;;;;15.94;100.00;101123.78;5210972;28;20104;-80
2021/07/24 00:31:31;;;;;;;21.52;11.73;;;;;;;15.91;100.00;101126.84;5191767;28;20029;-80
2021/07/24 00:34:01;;;;;;;24.42;12.85;;;;;;;15.95;100.00;101117.31;5211963;28;20025;-80
2021/07/24 00:36:32;;;;;;;22.90;12.07;;;;;;;15.90;100.00;101111.66;5197961;28;20416;-80
2021/07/24 00:39:05;;;;;;;27.02;13.20;;;;;;;15.86;100.00;101115.78;5213025;28;20163;-81
2021/07/24 00:41:53;;;;;;;24.83;13.05;;;;;;;15.79;100.00;101106.78;5209567;28;20057;-80
2021/07/24 00:44:24;;;;;;;20.27;11.98;;;;;;;15.74;100.00;101106.53;5192322;28;20029;-80
2021/07/24 00:46:56;;;;;;;24.92;12.55;;;;;;;15.67;100.00;101100.22;5212461;28;20027;-80
2021/07/24 00:49:30;;;;;;;23.80;12.98;;;;;;;15.62;100.00;101099.94;5214024;28;20025;-80
2021/07/24 00:52:01;;;;;;;25.25;13.65;;;;;;;15.56;100.00;101090.69;5214283;28;20161;-80
2021/07/24 00:54:32;;;;;;;25.38;12.48;;;;;;;15.55;100.00;101091.72;5191629;28;20029;-80
2021/07/24 00:57:03;;;;;;;25.08;13.05;;;;;;;15.55;100.00;101080.91;5209081;28;20033;-80
2021/07/24 00:59:34;;;;;;;28.77;13.05;;;;;;;15.66;100.00;101066.06;5207696;28;20037;-80
2021/07/24 01:02:05;;;;;;;23.73;13.50;;;;;;;15.63;100.00;101070.00;5208729;28;20044;-80
2021/07/24 01:04:35;;;;;;;28.30;13.65;;;;;;;15.67;100.00;101052.38;5223099;28;20090;-80
2021/07/24 01:07:09;;;;;;;30.77;14.35;;;;;;;15.84;100.00;101034.00;5206720;28;20112;-80
2021/07/24 01:09:39;;;;;;;30.50;14.57;;;;;;;15.96;100.00;101023.44;5212004;28;20029;-80
2021/07/24 01:12:10;;;;;;;30.98;14.50;;;;;;;15.92;100.00;101030.31;5215303;28;20077;-80
2021/07/24 01:14:45;;;;;;;25.33;14.40;;;;;;;15.97;100.00;101025.16;5197171;28;20032;-80
2021/07/24 01:17:15;;;;;;;29.40;13.82;;;;;;;15.95;100.00;101019.91;5209474;28;20033;-80
2021/07/24 01:19:54;;;;;;;33.28;14.15;;;;;;;16.04;100.00;101012.50;5208178;28;20086;-80
2021/07/24 01:22:27;;;;;;;28.67;13.95;;;;;;;16.07;100.00;100998.56;5196455;28;20053;-80
2021/07/24 01:25:00;;;;;;;27.40;13.65;;;;;;;16.14;100.00;100982.38;5215008;28;20040;-81
2021/07/24 01:27:40;;;;;;;29.33;14.68;;;;;;;16.18;100.00;100970.94;5212209;28;20391;-81
2021/07/24 01:30:12;;;;;;;26.52;13.63;;;;;;;16.18;100.00;100976.34;5210999;28;20032;-80
2021/07/24 01:32:42;;;;;;;31.95;14.48;;;;;;;16.22;100.00;100977.63;5196144;28;20017;-80
2021/07/24 01:35:13;;;;;;;33.00;14.57;;;;;;;16.35;100.00;100967.91;5219076;28;20894;-80
2021/07/24 01:37:43;;;;;;;28.02;14.57;;;;;;;16.37;100.00;100965.84;5201906;28;20029;-81
2021/07/24 01:40:14;;;;;;;28.70;14.77;;;;;;;16.38;100.00;100964.78;5218311;28;20029;-80
2021/07/24 01:42:45;;;;;;;30.27;14.50;;;;;;;16.34;100.00;100972.47;5219520;28;20035;-80
2021/07/24 01:45:20;;;;;;;;;;;;;;;16.39;100.00;100975.41;5216098;28;20036;-80
2021/07/24 01:47:51;;;;;;;26.10;14.52;;;;;;;16.27;100.00;100974.31;5212732;28;20429;-81
2021/07/24 01:53:18;;;;;;;30.65;13.43;;;;;;;16.14;100.00;100977.78;5213095;28;20053;-80
2021/07/24 01:55:52;;;;;;;27.27;14.40;;;;;;;16.04;100.00;100988.13;5212484;28;20056;-80
2021/07/24 01:58:29;;;;;;;26.08;14.25;;;;;;;15.96;100.00;100975.59;5177423;28;20027;-80
2021/07/24 02:01:03;;;;;;;31.42;14.30;;;;;;;15.92;100.00;100959.97;5216396;28;20466;-80
2021/07/24 02:03:41;;;;;;;24.17;14.38;;;;;;;15.85;100.00;100968.03;5217415;28;20025;-80
2021/07/24 02:06:14;;;;;;;31.17;14.85;;;;;;;15.76;100.00;100970.06;5205774;28;20025;-80
2021/07/24 02:08:47;;;;;;;27.45;14.43;;;;;;;15.67;100.00;100983.94;5208203;28;20593;-80
2021/07/24 02:11:19;;;;;;;35.03;15.73;;;;;;;15.57;100.00;100991.50;5213814;28;20489;-80
2021/07/24 02:13:50;;;;;;;27.65;14.95;;;;;;;15.50;100.00;100986.03;5200906;28;20098;-80
2021/07/24 02:16:21;;;;;;;28.55;15.45;;;;;;;15.49;100.00;100978.97;5217479;28;20046;-81
2021/07/24 02:18:52;;;;;;;32.22;14.75;;;;;;;15.46;100.00;100972.09;5194568;28;20391;-80
2021/07/24 02:21:22;;;;;;;28.10;14.80;;;;;;;15.46;100.00;100957.72;5211797;28;20029;-80
2021/07/24 02:23:53;;;;;;;33.35;15.85;;;;;;;15.51;100.00;100944.44;5200691;28;20104;-80
2021/07/24 02:26:23;;;;;;;30.98;14.57;;;;;;;15.47;100.00;100929.66;5218293;28;20419;-80
2021/07/24 02:28:54;;;;;;;33.63;15.00;;;;;;;15.36;100.00;100928.34;5195525;28;20021;-80
2021/07/24 02:31:24;;;;;;;33.30;16.20;;;;;;;15.26;100.00;100931.38;5210673;28;20248;-80
2021/07/24 02:33:59;;;;;;;34.65;16.73;;;;;;;15.20;100.00;100929.44;5198335;28;20464;-80
2021/07/24 02:36:29;;;;;;;33.30;15.17;;;;;;;15.15;100.00;100931.88;5208652;28;20028;-80
2021/07/24 02:39:00;;;;;;;34.97;15.68;;;;;;;15.09;100.00;100929.94;5213808;28;20025;-80
2021/07/24 02:41:30;;;;;;;33.08;16.42;;;;;;;15.05;100.00;100915.16;5190823;28;20025;-80
2021/07/24 02:44:01;;;;;;;33.35;15.85;;;;;;;15.12;100.00;100909.84;5212688;28;20036;-80
2021/07/24 02:46:31;;;;;;;33.67;15.48;;;;;;;15.22;100.00;100907.63;5218120;28;20037;-80
2021/07/24 02:49:02;;;;;;;31.60;15.52;;;;;;;15.28;100.00;100896.88;5216963;28;20027;-80
2021/07/24 02:51:32;;;;;;;35.25;16.05;;;;;;;15.37;100.00;100897.56;5211711;28;20510;-80
2021/07/24 02:54:02;;;;;;;35.33;16.08;;;;;;;15.37;100.00;100907.53;5209555;28;20140;-80
2021/07/24 02:56:33;;;;;;;31.95;15.15;;;;;;;15.33;100.00;100911.66;5214735;28;20048;-80
2021/07/24 02:59:03;;;;;;;32.00;14.52;;;;;;;15.29;100.00;100912.03;5216559;28;20036;-80
2021/07/24 03:01:34;;;;;;;34.88;15.02;;;;;;;15.28;100.00;100913.09;5214269;28;20033;-80
2021/07/24 03:04:04;;;;;;;27.38;15.02;;;;;;;15.29;100.00;100919.31;5206126;28;20434;-80
2021/07/24 03:06:35;;;;;;;35.28;15.75;;;;;;;15.37;100.00;100930.00;5210889;28;20037;-80
2021/07/24 03:09:06;;;;;;;28.77;14.30;;;;;;;15.30;100.00;100937.19;5216278;28;20025;-80
2021/07/24 03:11:38;;;;;;;38.10;16.38;;;;;;;15.36;100.00;100930.19;5216781;28;20029;-80
2021/07/24 03:14:09;;;;;;;30.52;15.63;;;;;;;15.41;100.00;100928.59;5193491;28;20148;-80
2021/07/24 03:16:40;;;;;;;36.08;17.27;;;;;;;15.49;100.00;100914.06;5211910;28;20021;-80
2021/07/24 03:19:10;;;;;;;38.28;17.88;;;;;;;15.54;100.00;100915.16;5215298;28;20513;-80
2021/07/24 03:21:41;;;;;;;36.50;17.50;;;;;;;15.55;100.00;100924.09;5217224;28;20099;-79
2021/07/24 03:24:11;;;;;;;33.35;16.20;;;;;;;15.64;100.00;100932.94;5212581;28;20017;-80
2021/07/24 03:26:42;;;;;;;38.22;16.67;;;;;;;15.63;100.00;100942.06;5194136;28;20158;-80
2021/07/24 03:29:12;;;;;;;33.65;16.55;;;;;;;15.52;100.00;100940.72;5212360;28;20037;-80
2021/07/24 03:31:43;;;;;;;36.58;16.98;;;;;;;15.47;100.00;100951.28;5216869;28;20029;-80
2021/07/24 03:34:13;;;;;;;32.03;16.73;;;;;;;15.47;100.00;100948.59;5197773;28;20099;-80
2021/07/24 03:36:43;;;;;;;35.47;15.88;;;;;;;15.50;100.00;100934.66;5211407;28;20021;-80
2021/07/24 03:39:14;;;;;;;34.10;16.80;;;;;;;15.50;100.00;100929.25;5209967;28;20306;-80
2021/07/24 03:41:44;;;;;;;30.60;16.27;;;;;;;15.54;100.00;100931.38;5217350;28;20029;-80
2021/07/24 03:44:15;;;;;;;35.38;16.05;;;;;;;15.64;100.00;100922.13;5179920;28;20029;-80
2021/07/24 03:46:45;;;;;;;34.50;15.68;;;;;;;15.72;100.00;100928.22;5216376;28;20025;-80
2021/07/24 03:49:16;;;;;;;38.00;16.83;;;;;;;15.69;100.00;100925.06;5215542;28;20025;-80
2021/07/24 03:51:46;;;;;;;31.85;16.10;;;;;;;15.66;100.00;100922.75;5194684;28;20028;-80
2021/07/24 03:54:16;;;;;;;31.85;15.63;;;;;;;15.62;100.00;100925.00;5209747;28;20045;-80
2021/07/24 03:56:47;;;;;;;31.60;15.25;;;;;;;15.59;100.00;100928.06;5195965;28;20059;-80
2021/07/24 03:59:17;;;;;;;36.30;16.33;;;;;;;15.51;100.00;100936.31;5215223;28;20112;-80
2021/07/24 04:01:49;;;;;;;43.03;15.60;;;;;;;15.44;100.00;100941.69;5214194;28;20029;-80
2021/07/24 04:04:20;;;;;;;35.85;16.55;;;;;;;15.53;100.00;100948.63;5189260;28;20036;-80
2021/07/24 04:06:53;;;;;;;30.52;15.45;;;;;;;15.57;100.00;100953.66;5208049;28;20487;-80
2021/07/24 04:09:25;;;;;;;34.40;17.13;;;;;;;15.50;100.00;100957.13;5213992;28;20155;-80
2021/07/24 04:11:56;;;;;;;32.70;16.23;;;;;;;15.47;100.00;100962.94;5216599;28;20459;-80
2021/07/24 04:14:26;;;;;;;36.97;17.27;;;;;;;15.41;100.00;100963.72;5212105;28;20119;-80
2021/07/24 04:16:57;;;;;;;33.67;16.63;;;;;;;15.34;100.00;100976.34;5210558;28;20037;-80
2021/07/24 04:19:29;;;;;;;37.55;16.50;;;;;;;15.28;100.00;100977.13;5211269;28;20021;-80
2021/07/24 04:21:59;;;;;;;38.83;17.88;;;;;;;15.24;100.00;100982.06;5215881;28;20029;-80
2021/07/24 04:24:30;;;;;;;36.83;16.88;;;;;;;15.20;100.00;100977.22;5213986;28;20028;-80
2021/07/24 04:27:00;;;;;;;31.35;17.10;;;;;;;15.17;100.00;100970.38;5210312;28;20539;-80
2021/07/24 04:29:31;;;;;;;30.77;16.20;;;;;;;15.16;100.00;100965.13;5208906;28;20487;-80
2021/07/24 04:32:02;;;;;;;40.35;16.98;;;;;;;15.17;100.00;100943.34;5215887;28;20030;-80
2021/07/24 04:34:33;;;;;;;38.10;17.23;;;;;;;15.24;100.00;100946.94;5215428;28;20021;-80
2021/07/24 04:37:04;;;;;;;35.72;16.88;;;;;;;15.33;100.00;100934.13;5193355;28;20020;-80
2021/07/24 04:39:34;;;;;;;38.28;16.10;;;;;;;15.40;100.00;100936.88;5190491;28;20449;-80
2021/07/24 04:42:05;;;;;;;31.10;16.08;;;;;;;15.33;100.00;100941.41;5213828;28;20033;-80
2021/07/24 04:44:37;;;;;;;38.45;18.02;;;;;;;15.29;100.00;100941.78;5213146;28;20150;-80
2021/07/24 04:47:08;;;;;;;35.35;16.35;;;;;;;15.34;100.00;100934.94;5211590;28;20029;-80
2021/07/24 04:49:47;;;;;;;33.90;16.15;;;;;;;15.40;100.00;100929.59;5208272;28;20025;-80
2021/07/24 04:52:19;;;;;;;34.53;17.73;;;;;;;15.40;100.00;100926.88;5209945;28;20026;-80
2021/07/24 04:54:50;;;;;;;36.10;17.95;;;;;;;15.47;100.00;100922.38;5214900;28;20025;-80
2021/07/24 04:57:21;;;;;;;35.30;16.70;;;;;;;15.57;100.00;100913.94;5205277;28;20025;-80
2021/07/24 04:59:52;;;;;;;39.58;16.42;;;;;;;15.63;100.00;100910.47;5212912;28;20025;-80
2021/07/24 05:02:23;;;;;;;31.13;17.30;;;;;;;15.71;100.00;100902.22;5217815;28;20171;-80
2021/07/24 05:04:54;;;;;;;34.85;17.90;;;;;;;15.77;100.00;100912.22;5209617;28;20700;-80
2021/07/24 05:07:27;;;;;;;34.35;18.55;;;;;;;15.75;100.00;100903.47;5196859;28;20467;-80
2021/07/24 05:09:58;;;;;;;41.65;17.88;;;;;;;15.85;100.00;100894.16;5215653;28;20075;-80
2021/07/24 05:12:28;;;;;;;43.67;20.15;;;;;;;15.90;100.00;100894.38;5221950;28;20484;-80
2021/07/24 05:14:58;;;;;;;46.88;21.38;;;;;;;15.83;100.00;100894.34;5222476;28;20029;-80
2021/07/24 05:17:29;;;;;;;41.08;20.45;;;;;;;15.87;100.00;100884.81;5199500;28;20017;-80
2021/07/24 05:19:59;;;;;;;43.80;20.27;;;;;;;15.95;100.00;100876.50;5214683;28;20480;-80
2021/07/24 05:22:30;;;;;;;42.13;18.85;;;;;;;16.07;100.00;100870.56;5219828;28;20029;-80
2021/07/24 05:25:00;;;;;;;37.90;20.48;;;;;;;16.11;100.00;100859.09;5222292;28;20471;-81
2021/07/24 05:27:31;;;;;;;43.75;21.73;;;;;;;16.04;100.00;100866.38;5201544;28;20060;-80
2021/07/24 05:30:02;;;;;;;38.17;19.20;;;;;;;16.05;100.00;100868.03;5214875;28;20394;-80
2021/07/24 05:32:34;;;;;;;36.90;19.25;;;;;;;16.17;100.00;100861.00;5217994;28;20545;-81
2021/07/24 05:35:06;;;;;;;35.63;18.55;;;;;;;16.26;100.00;100846.25;5221883;28;20048;-81
2021/07/24 05:37:36;;;;;;;43.30;19.70;;;;;;;16.34;100.00;100841.69;5222288;28;20028;-81
2021/07/24 05:40:07;;;;;;;36.05;19.20;;;;;;;16.36;100.00;100829.59;5214505;28;20043;-81
2021/07/24 05:42:38;;;;;;;39.88;19.52;;;;;;;16.42;100.00;100819.88;5215875;28;20044;-80
2021/07/24 05:45:09;;;;;;;36.63;19.60;;;;;;;16.39;100.00;100812.13;5221039;28;20033;-81
2021/07/24 05:47:39;;;;;;;36.20;20.23;;;;;;;16.45;100.00;100803.19;5222651;28;20025;-81
2021/07/24 05:50:10;;;;;;;37.80;18.70;;;;;;;16.51;100.00;100786.94;5216845;28;20032;-80
2021/07/24 05:52:40;;;;;;;36.33;18.95;;;;;;;16.56;100.00;100778.19;5215306;28;20033;-81
2021/07/24 05:55:11;;;;;;;33.17;18.20;;;;;;;16.54;100.00;100764.03;5218544;28;20024;-81
2021/07/24 05:57:41;;;;;;;37.90;19.73;;;;;;;16.61;100.00;100761.31;5215497;28;20033;-81
2021/07/24 06:00:12;;;;;;;37.40;18.50;;;;;;;16.66;100.00;100753.41;5216025;28;20825;-80
2021/07/24 06:02:43;;;;;;;36.70;19.23;;;;;;;16.66;100.00;100742.56;5227270;28;20025;-80
2021/07/24 06:05:13;;;;;;;35.92;18.73;;;;;;;16.64;100.00;100750.91;5226202;28;20032;-81
2021/07/24 06:07:44;;;;;;;39.53;19.13;;;;;;;16.72;100.00;100734.50;5198768;28;20025;-80
2021/07/24 06:10:14;;;;;;;38.35;20.08;;;;;;;16.86;100.00;100724.47;5196340;28;20026;-80
2021/07/24 06:12:48;;;;;;;42.08;20.75;;;;;;;16.89;100.00;100740.31;5220590;28;20033;-81
2021/07/24 06:15:18;;;;;;;37.42;20.15;;;;;;;16.88;100.00;100737.81;5202211;28;20037;-80
2021/07/24 06:17:49;;;;;;;37.65;21.45;;;;;;;16.97;100.00;100744.69;5198108;28;20082;-80
2021/07/24 06:20:19;;;;;;;46.20;23.50;;;;;;;17.04;100.00;100751.75;5210925;28;20055;-81
2021/07/24 06:22:50;;;;;;;42.78;23.42;;;;;;;17.14;100.00;100755.91;5224822;28;20091;-80
2021/07/24 06:25:20;;;;;;;43.97;23.00;;;;;;;17.28;100.00;100771.13;5212250;28;20037;-80
2021/07/24 06:27:51;;;;;;;38.20;21.88;;;;;;;17.41;100.00;100779.19;5195572;28;20029;-80
2021/07/24 06:30:21;;;;;;;42.17;22.10;;;;;;;17.68;100.00;100777.25;5199423;28;20037;-81
2021/07/24 06:32:52;;;;;;;38.95;22.50;;;;;;;17.70;100.00;100785.16;5217995;28;20112;-80
2021/07/24 06:35:22;;;;;;;40.92;22.30;;;;;;;17.76;100.00;100776.19;5212690;28;20032;-80
2021/07/24 06:37:53;;;;;;;44.10;20.50;;;;;;;17.96;100.00;100779.66;5212063;28;20029;-81
2021/07/24 06:40:23;;;;;;;47.72;20.35;;;;;;;18.29;100.00;100782.19;5215142;28;20728;-80
2021/07/24 06:42:54;;;;;;;37.80;19.25;;;;;;;18.57;100.00;100786.38;5207527;28;20078;-80
2021/07/24 06:45:24;;;;;;;40.63;21.05;;;;;;;18.77;100.00;100792.50;5197062;28;20032;-80
2021/07/24 06:47:55;;;;;;;35.40;19.30;;;;;;;19.08;100.00;100798.97;5200438;28;20029;-80
2021/07/24 06:50:25;;;;;;;33.25;20.15;;;;;;;19.23;100.00;100810.31;5215100;28;20035;-81
2021/07/24 06:52:59;;;;;;;32.10;19.05;;;;;;;19.23;100.00;100817.63;5211387;28;20028;-81
2021/07/24 06:55:30;;;;;;;37.83;18.65;;;;;;;19.18;100.00;100815.59;5212134;28;20051;-81
2021/07/24 06:58:01;;;;;;;34.78;18.60;;;;;;;19.26;100.00;100809.03;5214146;28;20576;-81
2021/07/24 07:00:32;;;;;;;36.47;19.45;;;;;;;19.33;100.00;100813.34;5210598;28;20037;-80
2021/07/24 07:03:03;;;;;;;39.80;20.15;;;;;;;19.46;100.00;100817.00;5223983;28;20488;-81
2021/07/24 07:05:33;;;;;;;33.15;17.52;;;;;;;19.43;100.00;100829.16;5201547;28;20128;-80
2021/07/24 07:08:04;;;;;;;29.52;18.02;;;;;;;19.41;100.00;100842.16;5197167;28;20040;-81
2021/07/24 07:10:34;;;;;;;42.42;17.30;;;;;;;19.59;100.00;100835.91;5192271;28;20032;-81
2021/07/24 07:13:05;;;;;;;31.35;16.52;;;;;;;19.64;100.00;100830.66;5212382;28;20025;-81
2021/07/24 07:15:35;;;;;;;31.30;17.25;;;;;;;19.67;100.00;100830.16;5217299;28;20036;-80
2021/07/24 07:18:05;;;;;;;30.40;16.38;;;;;;;19.77;100.00;100826.94;5217101;28;20547;-81
2021/07/24 07:20:36;;;;;;;28.02;16.08;;;;;;;19.39;100.00;100826.06;5209637;28;20038;-81
2021/07/24 07:23:06;;;;;;;27.00;15.52;;;;;;;19.67;100.00;100798.34;5186419;28;20045;-81
2021/07/24 07:25:38;;;;;;;26.15;15.50;;;;;;;19.75;100.00;100796.41;5217144;28;20039;-81
2021/07/24 07:28:09;;;;;;;30.17;16.23;;;;;;;19.81;100.00;100781.88;5217185;28;20028;-81
2021/07/24 07:30:39;;;;;;;25.25;16.15;;;;;;;19.44;100.00;100787.28;5212019;28;20029;-81
2021/07/24 07:33:10;;;;;;;30.20;16.35;;;;;;;19.42;100.00;100803.81;5193227;28;20025;-81
2021/07/24 07:35:40;;;;;;;32.70;16.00;;;;;;;19.49;100.00;100792.06;5213662;28;20029;-81
2021/07/24 07:38:11;;;;;;;32.63;17.88;;;;;;;19.46;100.00;100793.31;5199513;28;20025;-81
2021/07/24 07:40:42;;;;;;;25.35;15.18;;;;;;;19.38;100.00;100799.91;5214268;28;20107;-81
2021/07/24 07:43:13;;;;;;;30.40;16.42;;;;;;;19.49;100.00;100800.22;5210495;28;20028;-81
2021/07/24 07:45:43;;;;;;;27.75;15.30;;;;;;;19.47;100.00;100799.59;5194014;28;20029;-81
2021/07/24 07:48:14;;;;;;;26.90;15.98;;;;;;;19.48;100.00;100784.94;5216551;28;20140;-81
2021/07/24 07:50:45;;;;;;;31.35;15.98;;;;;;;19.42;100.00;100783.94;5215009;28;20056;-81
2021/07/24 07:53:16;;;;;;;30.33;16.52;;;;;;;19.39;100.00;100785.25;5211382;28;20028;-81
2021/07/24 07:55:46;;;;;;;30.52;16.88;;;;;;;19.34;100.00;100784.25;5210481;28;20033;-81
2021/07/24 07:58:17;;;;;;;30.85;16.48;;;;;;;19.43;100.00;100782.91;5195442;28;20021;-81
2021/07/24 08:00:47;;;;;;;33.88;17.35;;;;;;;19.46;100.00;100787.88;5208862;28;20075;-81
2021/07/24 08:03:20;;;;;;;36.72;18.65;;;;;;;19.50;100.00;100789.09;5222718;28;20548;-81
2021/07/24 08:05:52;;;;;;;27.40;16.95;;;;;;;19.50;100.00;100785.56;5215828;28;20040;-81
2021/07/24 08:08:23;;;;;;;28.90;17.05;;;;;;;19.62;100.00;100784.59;5216071;28;20021;-81
2021/07/24 08:10:53;;;;;;;29.15;16.75;;;;;;;19.70;100.00;100783.47;5209023;28;20055;-81
2021/07/24 08:13:26;;;;;;;32.42;16.92;;;;;;;19.79;100.00;100773.94;5209829;28;20025;-81
2021/07/24 08:15:56;;;;;;;37.75;16.85;;;;;;;19.89;100.00;100771.50;5215726;28;20029;-81
2021/07/24 08:18:27;;;;;;;30.70;16.67;;;;;;;19.92;100.00;100781.91;5216477;28;20028;-81
2021/07/24 08:20:57;;;;;;;28.52;16.45;;;;;;;19.95;100.00;100775.19;5210536;28;20498;-81
2021/07/24 08:23:28;;;;;;;29.50;16.88;;;;;;;19.95;100.00;100772.47;5209264;28;20029;-81
2021/07/24 08:25:58;;;;;;;35.22;18.17;;;;;;;19.92;100.00;100776.47;5213317;28;20025;-80
2021/07/24 08:28:29;;;;;;;28.85;18.45;;;;;;;19.96;100.00;100784.19;5216003;28;20060;-81
2021/07/24 08:31:00;;;;;;;29.13;16.73;;;;;;;20.12;100.00;100786.25;5212770;28;20059;-81
2021/07/24 08:33:31;;;;;;;29.65;17.05;;;;;;;20.26;100.00;100785.03;5209416;28;20562;-81
2021/07/24 08:36:01;;;;;;;30.00;17.80;;;;;;;20.34;100.00;100792.88;5210852;28;20108;-81
2021/07/24 08:38:32;;;;;;;26.38;16.63;;;;;;;20.52;100.00;100783.00;5214948;28;20370;-81
2021/07/24 08:41:03;;;;;;;30.77;16.80;;;;;;;20.42;100.00;100792.53;5214860;28;20057;-81
2021/07/24 08:43:33;;;;;;;32.10;16.85;;;;;;;20.40;100.00;100788.38;5210153;28;20021;-81
2021/07/24 08:46:04;;;;;;;29.85;16.45;;;;;;;20.37;100.00;100803.28;5192072;28;20120;-81
2021/07/24 08:48:34;;;;;;;30.58;16.95;;;;;;;20.35;100.00;100797.25;5213441;28;20095;-81
2021/07/24 08:51:05;;;;;;;26.05;15.35;;;;;;;20.53;100.00;100795.53;5214497;28;20033;-80
2021/07/24 08:53:40;;;;;;;31.20;16.95;;;;;;;20.68;100.00;100796.78;5212577;28;20431;-80
2021/07/24 08:56:17;;;;;;;25.85;16.85;;;;;;;20.63;100.00;100804.84;5209597;28;20029;-81
2021/07/24 08:58:51;;;;;;;31.00;17.92;;;;;;;20.36;100.00;100820.72;5191791;28;20036;-81
2021/07/24 09:01:22;;;;;;;32.47;17.65;;;;;;;20.34;100.00;100825.56;5208732;28;20588;-81
2021/07/24 09:03:55;;;;;;;28.50;16.30;;;;;;;20.35;100.00;100821.78;5222629;28;20052;-81
2021/07/24 09:06:29;;;;;;;27.92;15.98;;;;;;;20.42;100.00;100825.22;5210142;28;20112;-81
2021/07/24 09:08:59;;;;;;;26.27;14.90;;;;;;;20.61;100.00;100836.09;5214710;28;20037;-81
2021/07/24 09:11:30;;;;;;;28.38;15.15;;;;;;;20.52;100.00;100824.69;5213648;28;20021;-81
2021/07/24 09:14:00;;;;;;;26.90;16.23;;;;;;;20.53;100.00;100825.53;5209282;28;20033;-81
2021/07/24 09:16:32;;;;;;;25.02;15.98;;;;;;;20.78;100.00;100839.81;5209959;28;20124;-81
2021/07/24 09:19:03;;;;;;;27.70;14.77;;;;;;;20.71;100.00;100835.53;5213743;28;20061;-81
2021/07/24 09:21:37;;;;;;;27.15;14.55;;;;;;;20.81;100.00;100830.34;5215248;28;20102;-81
2021/07/24 09:24:20;;;;;;;26.05;15.07;;;;;;;20.89;100.00;100836.28;5172514;28;20044;-80
2021/07/24 09:26:51;;;;;;;26.13;15.00;;;;;;;20.87;100.00;100832.97;5215695;28;20075;-81
2021/07/24 09:29:21;;;;;;;24.42;14.57;;;;;;;21.03;100.00;100838.78;5212140;28;20025;-80
2021/07/24 09:31:52;;;;;;;25.65;14.18;;;;;;;21.09;100.00;100843.31;5209068;28;20029;-80
2021/07/24 09:34:40;;;;;;;26.05;14.05;;;;;;;21.11;100.00;100847.47;5209758;28;20511;-81
2021/07/24 09:37:25;;;;;;;29.40;14.40;;;;;;;20.94;100.00;100847.34;5193637;28;20021;-81
2021/07/24 09:39:58;;;;;;;;;;;;;;;20.89;100.00;100849.94;5208402;28;20029;-81
2021/07/24 09:42:33;;;;;;;30.10;13.70;;;;;;;21.16;100.00;100849.47;5209755;28;19948;-81
2021/07/24 09:45:06;;;;;;;24.58;14.25;;;;;;;21.15;100.00;100845.94;5215143;28;20038;-81
2021/07/24 09:47:36;;;;;;;25.08;14.63;;;;;;;21.12;100.00;100843.66;5181381;28;20021;-81
2021/07/24 09:50:15;;;;;;;28.25;14.68;;;;;;;21.03;100.00;100836.88;5210448;28;20077;-81
2021/07/24 09:52:51;;;;;;;26.48;14.93;;;;;;;21.14;100.00;100844.28;5212604;28;20100;-81
2021/07/24 09:55:23;;;;;;;30.17;14.85;;;;;;;21.30;100.00;100828.25;5214647;28;20052;-81
2021/07/24 09:57:57;;;;;;;25.20;14.20;;;;;;;21.31;100.00;100828.06;5196039;28;20021;-81
2021/07/24 10:00:30;;;;;;;22.63;13.68;;;;;;;21.40;100.00;100825.81;5211543;28;20060;-80
2021/07/24 10:03:04;;;;;;;21.90;13.95;;;;;;;21.75;100.00;100812.09;5212865;28;20036;-81
2021/07/24 10:05:40;;;;;;;31.27;14.97;;;;;;;21.79;100.00;100815.16;5210599;28;20443;-80
2021/07/24 10:08:13;;;;;;;23.13;14.63;;;;;;;21.75;100.00;100814.84;5199390;28;20494;-81
2021/07/24 10:10:45;;;;;;;25.92;14.32;;;;;;;21.68;100.00;100823.13;5211613;28;20025;-80
2021/07/24 10:13:15;;;;;;;23.98;14.20;;;;;;;21.67;100.00;100823.38;5212538;28;20071;-81
2021/07/24 10:15:46;;;;;;;30.88;14.98;;;;;;;21.67;100.00;100816.03;5200915;28;20057;-81
2021/07/24 10:18:17;;;;;;;28.42;15.40;;;;;;;21.72;100.00;100820.75;5218051;28;20282;-81
2021/07/24 10:20:50;;;;;;;24.08;14.20;;;;;;;21.73;100.00;100816.94;5211861;28;20455;-81
2021/07/24 10:23:23;;;;;;;27.50;14.02;;;;;;;21.75;100.00;100822.19;5222964;28;20200;-81
2021/07/24 10:26:12;;;;;;;27.05;15.32;;;;;;;21.75;100.00;100833.13;5215806;28;20533;-81
2021/07/24 10:29:01;;;;;;;25.35;14.50;;;;;;;21.67;100.00;100828.84;5212032;28;20049;-81
2021/07/24 10:31:38;;;;;;;25.75;14.88;;;;;;;21.62;100.00;100829.56;5194495;28;20025;-80
2021/07/24 10:34:11;;;;;;;25.90;15.18;;;;;;;21.21;100.00;100838.69;5197111;28;20072;-81
2021/07/24 10:36:42;;;;;;;27.70;14.88;;;;;;;21.12;100.00;100849.13;5200609;28;20021;-81
2021/07/24 10:39:20;;;;;;;28.45;15.32;;;;;;;20.99;100.00;100846.63;5216929;28;20021;-81
2021/07/24 10:41:52;;;;;;;26.60;15.27;;;;;;;20.98;100.00;100849.56;5217533;28;20030;-81
2021/07/24 10:44:23;;;;;;;24.48;15.02;;;;;;;21.13;100.00;100852.66;5200420;28;20090;-81
2021/07/24 10:46:55;;;;;;;26.10;15.18;;;;;;;20.77;100.00;100857.25;5213642;28;20036;-81
2021/07/24 10:49:34;;;;;;;27.25;14.38;;;;;;;20.81;100.00;100868.50;5189525;28;20058;-81
2021/07/24 10:52:07;;;;;;;26.23;15.90;;;;;;;20.76;100.00;100863.75;5216303;28;20033;-81
2021/07/24 10:55:12;;;;;;;29.85;15.70;;;;;;;20.76;100.00;100868.38;5194444;28;20036;-81
2021/07/24 10:57:43;;;;;;;31.80;16.48;;;;;;;20.83;100.00;100878.09;5222881;28;20024;-80
2021/07/24 11:00:40;;;;;;;27.17;16.17;;;;;;;20.66;100.00;100869.78;5211890;28;20037;-80
2021/07/24 11:03:31;;;;;;;24.13;14.07;;;;;;;20.66;100.00;100869.78;5195002;28;20095;-80
2021/07/24 11:06:21;;;;;;;27.00;15.25;;;;;;;20.68;100.00;100872.25;5215149;28;20039;-81
2021/07/24 11:08:58;;;;;;;27.73;15.35;;;;;;;20.52;100.00;100875.66;5217851;28;20029;-81
2021/07/24 11:11:44;;;;;;;27.13;15.35;;;;;;;20.32;100.00;100874.00;5197752;28;20033;-81
2021/07/24 11:14:34;;;;;;;27.83;14.88;;;;;;;20.35;100.00;100870.81;5217187;28;20488;-81
2021/07/24 11:17:05;;;;;;;26.52;15.70;;;;;;;20.39;100.00;100876.66;5199787;28;20025;-82
2021/07/24 11:19:39;;;;;;;24.45;15.50;;;;;;;20.29;100.00;100870.91;5214055;28;20082;-81
2021/07/24 11:22:11;;;;;;;31.92;15.77;;;;;;;20.25;100.00;100866.97;5211060;28;20394;-81
2021/07/24 11:24:45;;;;;;;26.27;15.90;;;;;;;20.37;100.00;100867.84;5210848;28;20041;-81
2021/07/24 11:27:27;;;;;;;27.25;15.95;;;;;;;20.43;100.00;100867.78;5217389;28;20041;-80